sensor_id;sensor_type;location;lat;lon;timestamp;P1;durP1;ratioP1;P2;durP2;ratioP2
16824;SDS011;8529;48.108;-1.706;2023-07-22T00:02:07;4.15;;;2.33;;
16824;SDS011;8529;48.108;-1.706;2023-07-22T00:04:34;4.53;;;2.53;;
16824;SDS011;8529;48.108;-1.706;2023-07-22T00:07:01;4.10;;;2.33;;
16824;SDS011;8529;48.108;-1.706;2023-07-22T00:09:28;4.78;;;2.30;;
16824;SDS011;8529;48.108;-1.706;2023-07-22T00:11:56;6.07;;;2.45;;
16824;SDS011;8529;48.108;-1.706;2023-07-22T00:14:23;4.45;;;2.30;;
16824;SDS011;8529;48.108;-1.706;2023-07-22T00:16:50;4.03;;;2.28;;
16824;SDS011;8529;48.108;-1.706;2023-07-22T00:19:17;2.55;;;2.10;;
16824;SDS011;8529;48.108;-1.706;2023-07-22T00:21:44;6.60;;;2.42;;
16824;SDS011;8529;48.108;-1.706;2023-07-22T00:24:11;4.13;;;2.58;;
16824;SDS011;8529;48.108;-1.706;2023-07-22T00:26:38;3.60;;;2.10;;
16824;SDS011;8529;48.108;-1.706;2023-07-22T00:29:06;3.42;;;2.00;;
16824;SDS011;8529;48.108;-1.706;2023-07-22T00:31:33;4.82;;;2.40;;
16824;SDS011;8529;48.108;-1.706;2023-07-22T00:34:00;3.65;;;2.13;;
16824;SDS011;8529;48.108;-1.706;2023-07-22T00:36:27;7.35;;;2.25;;
16824;SDS011;8529;48.108;-1.706;2023-07-22T00:38:54;4.57;;;2.00;;
16824;SDS011;8529;48.108;-1.706;2023-07-22T00:41:21;4.70;;;2.83;;
16824;SDS011;8529;48.108;-1.706;2023-07-22T00:43:48;4.72;;;2.20;;
16824;SDS011;8529;48.108;-1.706;2023-07-22T00:46:16;5.55;;;2.33;;
16824;SDS011;8529;48.108;-1.706;2023-07-22T00:48:43;5.65;;;3.03;;
16824;SDS011;8529;48.108;-1.706;2023-07-22T00:51:11;4.63;;;3.00;;
16824;SDS011;8529;48.108;-1.706;2023-07-22T00:53:38;4.72;;;3.40;;
16824;SDS011;8529;48.108;-1.706;2023-07-22T00:56:05;5.25;;;3.28;;
16824;SDS011;8529;48.108;-1.706;2023-07-22T00:58:32;8.80;;;3.53;;
16824;SDS011;8529;48.108;-1.706;2023-07-22T01:01:00;5.68;;;3.10;;
16824;SDS011;8529;48.108;-1.706;2023-07-22T01:03:28;6.93;;;3.58;;
16824;SDS011;8529;48.108;-1.706;2023-07-22T01:05:55;6.07;;;3.90;;
16824;SDS011;8529;48.108;-1.706;2023-07-22T01:08:25;6.85;;;4.10;;
16824;SDS011;8529;48.108;-1.706;2023-07-22T01:10:52;7.95;;;4.13;;
16824;SDS011;8529;48.108;-1.706;2023-07-22T01:13:19;7.05;;;3.80;;
16824;SDS011;8529;48.108;-1.706;2023-07-22T01:15:46;8.18;;;3.70;;
16824;SDS011;8529;48.108;-1.706;2023-07-22T01:18:13;6.80;;;3.80;;
16824;SDS011;8529;48.108;-1.706;2023-07-22T01:20:42;8.77;;;4.32;;
16824;SDS011;8529;48.108;-1.706;2023-07-22T01:23:11;6.82;;;3.63;;
16824;SDS011;8529;48.108;-1.706;2023-07-22T01:25:38;14.15;;;4.55;;
16824;SDS011;8529;48.108;-1.706;2023-07-22T01:28:08;6.60;;;4.20;;
16824;SDS011;8529;48.108;-1.706;2023-07-22T01:30:36;12.65;;;4.88;;
16824;SDS011;8529;48.108;-1.706;2023-07-22T01:33:04;6.70;;;3.78;;
16824;SDS011;8529;48.108;-1.706;2023-07-22T01:35:31;8.05;;;4.05;;
16824;SDS011;8529;48.108;-1.706;2023-07-22T01:37:58;6.65;;;4.18;;
16824;SDS011;8529;48.108;-1.706;2023-07-22T01:40:26;7.63;;;4.80;;
16824;SDS011;8529;48.108;-1.706;2023-07-22T01:42:53;7.05;;;4.50;;
16824;SDS011;8529;48.108;-1.706;2023-07-22T01:45:20;7.70;;;3.80;;
16824;SDS011;8529;48.108;-1.706;2023-07-22T01:47:47;7.70;;;3.95;;
16824;SDS011;8529;48.108;-1.706;2023-07-22T01:50:14;7.65;;;4.30;;
16824;SDS011;8529;48.108;-1.706;2023-07-22T01:52:43;6.10;;;3.78;;
16824;SDS011;8529;48.108;-1.706;2023-07-22T01:55:11;7.13;;;4.13;;
16824;SDS011;8529;48.108;-1.706;2023-07-22T01:57:39;7.03;;;3.80;;
16824;SDS011;8529;48.108;-1.706;2023-07-22T02:00:08;10.23;;;4.32;;
16824;SDS011;8529;48.108;-1.706;2023-07-22T02:02:36;7.13;;;4.07;;
16824;SDS011;8529;48.108;-1.706;2023-07-22T02:05:03;7.18;;;4.50;;
16824;SDS011;8529;48.108;-1.706;2023-07-22T02:07:31;9.70;;;4.57;;
16824;SDS011;8529;48.108;-1.706;2023-07-22T02:09:58;6.88;;;4.32;;
16824;SDS011;8529;48.108;-1.706;2023-07-22T02:12:25;5.63;;;4.13;;
16824;SDS011;8529;48.108;-1.706;2023-07-22T02:14:53;6.32;;;4.25;;
16824;SDS011;8529;48.108;-1.706;2023-07-22T02:17:21;6.70;;;3.88;;
16824;SDS011;8529;48.108;-1.706;2023-07-22T02:19:48;5.68;;;4.32;;
16824;SDS011;8529;48.108;-1.706;2023-07-22T02:22:15;5.63;;;4.15;;
16824;SDS011;8529;48.108;-1.706;2023-07-22T02:24:42;6.20;;;4.30;;
16824;SDS011;8529;48.108;-1.706;2023-07-22T02:27:10;8.55;;;4.25;;
16824;SDS011;8529;48.108;-1.706;2023-07-22T02:29:37;7.47;;;4.70;;
16824;SDS011;8529;48.108;-1.706;2023-07-22T02:32:05;5.88;;;4.32;;
16824;SDS011;8529;48.108;-1.706;2023-07-22T02:34:33;8.55;;;4.50;;
16824;SDS011;8529;48.108;-1.706;2023-07-22T02:37:00;5.00;;;3.90;;
16824;SDS011;8529;48.108;-1.706;2023-07-22T02:39:27;7.30;;;4.40;;
16824;SDS011;8529;48.108;-1.706;2023-07-22T02:41:54;6.45;;;4.38;;
16824;SDS011;8529;48.108;-1.706;2023-07-22T02:44:21;8.05;;;4.25;;
16824;SDS011;8529;48.108;-1.706;2023-07-22T02:46:48;6.85;;;4.35;;
16824;SDS011;8529;48.108;-1.706;2023-07-22T02:49:16;6.80;;;4.53;;
16824;SDS011;8529;48.108;-1.706;2023-07-22T02:51:43;5.90;;;3.83;;
16824;SDS011;8529;48.108;-1.706;2023-07-22T02:54:10;6.35;;;4.18;;
16824;SDS011;8529;48.108;-1.706;2023-07-22T02:56:36;6.88;;;4.03;;
16824;SDS011;8529;48.108;-1.706;2023-07-22T02:59:04;5.40;;;3.95;;
16824;SDS011;8529;48.108;-1.706;2023-07-22T03:01:31;6.97;;;4.00;;
16824;SDS011;8529;48.108;-1.706;2023-07-22T03:03:58;9.15;;;4.25;;
16824;SDS011;8529;48.108;-1.706;2023-07-22T03:06:26;6.18;;;4.28;;
16824;SDS011;8529;48.108;-1.706;2023-07-22T03:08:54;6.90;;;3.88;;
16824;SDS011;8529;48.108;-1.706;2023-07-22T03:11:22;9.10;;;4.28;;
16824;SDS011;8529;48.108;-1.706;2023-07-22T03:13:50;5.75;;;3.80;;
16824;SDS011;8529;48.108;-1.706;2023-07-22T03:16:17;5.57;;;3.85;;
16824;SDS011;8529;48.108;-1.706;2023-07-22T03:18:44;9.80;;;3.88;;
16824;SDS011;8529;48.108;-1.706;2023-07-22T03:21:11;8.48;;;3.92;;
16824;SDS011;8529;48.108;-1.706;2023-07-22T03:23:39;10.05;;;4.80;;
16824;SDS011;8529;48.108;-1.706;2023-07-22T03:26:06;5.78;;;3.85;;
16824;SDS011;8529;48.108;-1.706;2023-07-22T03:28:33;5.03;;;3.50;;
16824;SDS011;8529;48.108;-1.706;2023-07-22T03:31:00;6.75;;;4.13;;
16824;SDS011;8529;48.108;-1.706;2023-07-22T03:33:27;7.35;;;4.07;;
16824;SDS011;8529;48.108;-1.706;2023-07-22T03:35:54;4.78;;;3.92;;
16824;SDS011;8529;48.108;-1.706;2023-07-22T03:38:21;5.68;;;3.67;;
16824;SDS011;8529;48.108;-1.706;2023-07-22T03:40:49;5.53;;;3.78;;
16824;SDS011;8529;48.108;-1.706;2023-07-22T03:43:17;5.97;;;4.28;;
16824;SDS011;8529;48.108;-1.706;2023-07-22T03:45:44;7.55;;;4.15;;
16824;SDS011;8529;48.108;-1.706;2023-07-22T03:48:11;7.05;;;4.35;;
16824;SDS011;8529;48.108;-1.706;2023-07-22T03:50:38;12.57;;;4.72;;
16824;SDS011;8529;48.108;-1.706;2023-07-22T03:53:05;8.77;;;4.20;;
16824;SDS011;8529;48.108;-1.706;2023-07-22T03:55:32;5.45;;;4.18;;
16824;SDS011;8529;48.108;-1.706;2023-07-22T03:58:00;7.65;;;4.10;;
16824;SDS011;8529;48.108;-1.706;2023-07-22T04:00:27;5.53;;;3.58;;
16824;SDS011;8529;48.108;-1.706;2023-07-22T04:02:54;8.57;;;4.25;;
16824;SDS011;8529;48.108;-1.706;2023-07-22T04:05:21;6.78;;;3.78;;
16824;SDS011;8529;48.108;-1.706;2023-07-22T04:07:48;6.47;;;3.75;;
16824;SDS011;8529;48.108;-1.706;2023-07-22T04:10:15;5.72;;;3.58;;
16824;SDS011;8529;48.108;-1.706;2023-07-22T04:12:41;6.22;;;3.63;;
16824;SDS011;8529;48.108;-1.706;2023-07-22T04:15:10;5.63;;;3.58;;
16824;SDS011;8529;48.108;-1.706;2023-07-22T04:17:37;7.63;;;3.63;;
16824;SDS011;8529;48.108;-1.706;2023-07-22T04:20:05;7.45;;;4.07;;
16824;SDS011;8529;48.108;-1.706;2023-07-22T04:22:34;5.15;;;3.30;;
16824;SDS011;8529;48.108;-1.706;2023-07-22T04:25:01;5.60;;;3.38;;
16824;SDS011;8529;48.108;-1.706;2023-07-22T04:27:29;5.88;;;3.17;;
16824;SDS011;8529;48.108;-1.706;2023-07-22T04:29:56;8.68;;;3.70;;
16824;SDS011;8529;48.108;-1.706;2023-07-22T04:32:24;6.28;;;3.72;;
16824;SDS011;8529;48.108;-1.706;2023-07-22T04:34:51;7.03;;;3.25;;
16824;SDS011;8529;48.108;-1.706;2023-07-22T04:37:18;4.70;;;3.30;;
16824;SDS011;8529;48.108;-1.706;2023-07-22T04:39:46;6.85;;;3.20;;
16824;SDS011;8529;48.108;-1.706;2023-07-22T04:42:14;8.35;;;4.00;;
16824;SDS011;8529;48.108;-1.706;2023-07-22T04:44:41;4.90;;;3.20;;
16824;SDS011;8529;48.108;-1.706;2023-07-22T04:47:09;5.43;;;3.30;;
16824;SDS011;8529;48.108;-1.706;2023-07-22T04:49:37;5.82;;;3.17;;
16824;SDS011;8529;48.108;-1.706;2023-07-22T04:52:05;5.35;;;3.83;;
16824;SDS011;8529;48.108;-1.706;2023-07-22T04:54:33;6.43;;;3.13;;
16824;SDS011;8529;48.108;-1.706;2023-07-22T04:57:00;4.72;;;3.88;;
16824;SDS011;8529;48.108;-1.706;2023-07-22T04:59:27;6.82;;;3.13;;
16824;SDS011;8529;48.108;-1.706;2023-07-22T05:01:54;4.25;;;3.38;;
16824;SDS011;8529;48.108;-1.706;2023-07-22T05:04:21;3.90;;;3.10;;
16824;SDS011;8529;48.108;-1.706;2023-07-22T05:06:50;4.53;;;3.05;;
16824;SDS011;8529;48.108;-1.706;2023-07-22T05:09:17;4.05;;;3.10;;
16824;SDS011;8529;48.108;-1.706;2023-07-22T05:11:44;5.85;;;3.47;;
16824;SDS011;8529;48.108;-1.706;2023-07-22T05:14:11;5.80;;;3.83;;
16824;SDS011;8529;48.108;-1.706;2023-07-22T05:16:38;4.25;;;3.25;;
16824;SDS011;8529;48.108;-1.706;2023-07-22T05:19:05;14.57;;;3.55;;
16824;SDS011;8529;48.108;-1.706;2023-07-22T05:21:33;5.43;;;3.00;;
16824;SDS011;8529;48.108;-1.706;2023-07-22T05:24:01;6.53;;;3.15;;
16824;SDS011;8529;48.108;-1.706;2023-07-22T05:26:28;5.72;;;3.28;;
16824;SDS011;8529;48.108;-1.706;2023-07-22T05:28:56;6.15;;;3.63;;
16824;SDS011;8529;48.108;-1.706;2023-07-22T05:31:22;4.95;;;3.08;;
16824;SDS011;8529;48.108;-1.706;2023-07-22T05:33:50;5.32;;;3.15;;
16824;SDS011;8529;48.108;-1.706;2023-07-22T05:36:16;5.70;;;3.45;;
16824;SDS011;8529;48.108;-1.706;2023-07-22T05:38:44;6.43;;;3.05;;
16824;SDS011;8529;48.108;-1.706;2023-07-22T05:41:12;6.13;;;3.95;;
16824;SDS011;8529;48.108;-1.706;2023-07-22T05:43:39;6.30;;;3.10;;
16824;SDS011;8529;48.108;-1.706;2023-07-22T05:46:06;4.90;;;3.03;;
16824;SDS011;8529;48.108;-1.706;2023-07-22T05:48:32;5.72;;;3.13;;
16824;SDS011;8529;48.108;-1.706;2023-07-22T05:50:59;4.65;;;3.28;;
16824;SDS011;8529;48.108;-1.706;2023-07-22T05:53:26;5.97;;;3.28;;
16824;SDS011;8529;48.108;-1.706;2023-07-22T05:55:53;9.13;;;3.85;;
16824;SDS011;8529;48.108;-1.706;2023-07-22T05:58:22;5.82;;;3.65;;
16824;SDS011;8529;48.108;-1.706;2023-07-22T06:00:49;6.13;;;3.35;;
16824;SDS011;8529;48.108;-1.706;2023-07-22T06:03:16;5.45;;;3.20;;
16824;SDS011;8529;48.108;-1.706;2023-07-22T06:05:43;5.65;;;3.30;;
16824;SDS011;8529;48.108;-1.706;2023-07-22T06:08:10;6.38;;;4.05;;
16824;SDS011;8529;48.108;-1.706;2023-07-22T06:10:37;5.63;;;3.72;;
16824;SDS011;8529;48.108;-1.706;2023-07-22T06:13:05;5.65;;;3.88;;
16824;SDS011;8529;48.108;-1.706;2023-07-22T06:15:34;5.75;;;3.70;;
16824;SDS011;8529;48.108;-1.706;2023-07-22T06:18:01;6.75;;;3.50;;
16824;SDS011;8529;48.108;-1.706;2023-07-22T06:20:28;5.95;;;3.50;;
16824;SDS011;8529;48.108;-1.706;2023-07-22T06:22:56;5.07;;;3.85;;
16824;SDS011;8529;48.108;-1.706;2023-07-22T06:25:22;6.28;;;3.47;;
16824;SDS011;8529;48.108;-1.706;2023-07-22T06:27:49;8.00;;;4.32;;
16824;SDS011;8529;48.108;-1.706;2023-07-22T06:30:19;6.20;;;3.63;;
16824;SDS011;8529;48.108;-1.706;2023-07-22T06:32:47;5.57;;;3.55;;
16824;SDS011;8529;48.108;-1.706;2023-07-22T06:35:14;4.72;;;3.65;;
16824;SDS011;8529;48.108;-1.706;2023-07-22T06:37:41;7.75;;;3.55;;
16824;SDS011;8529;48.108;-1.706;2023-07-22T06:40:08;6.20;;;3.38;;
16824;SDS011;8529;48.108;-1.706;2023-07-22T06:42:36;5.13;;;3.20;;
16824;SDS011;8529;48.108;-1.706;2023-07-22T06:45:03;7.57;;;3.88;;
16824;SDS011;8529;48.108;-1.706;2023-07-22T06:47:30;5.40;;;3.05;;
16824;SDS011;8529;48.108;-1.706;2023-07-22T06:49:59;6.47;;;3.15;;
16824;SDS011;8529;48.108;-1.706;2023-07-22T06:52:26;5.57;;;3.45;;
16824;SDS011;8529;48.108;-1.706;2023-07-22T06:54:53;6.18;;;3.30;;
16824;SDS011;8529;48.108;-1.706;2023-07-22T06:57:20;9.27;;;3.60;;
16824;SDS011;8529;48.108;-1.706;2023-07-22T06:59:47;8.05;;;3.28;;
16824;SDS011;8529;48.108;-1.706;2023-07-22T07:02:15;7.20;;;3.83;;
16824;SDS011;8529;48.108;-1.706;2023-07-22T07:04:42;4.45;;;3.10;;
16824;SDS011;8529;48.108;-1.706;2023-07-22T07:07:11;4.22;;;3.15;;
16824;SDS011;8529;48.108;-1.706;2023-07-22T07:09:38;5.53;;;3.00;;
16824;SDS011;8529;48.108;-1.706;2023-07-22T07:12:06;4.57;;;3.10;;
16824;SDS011;8529;48.108;-1.706;2023-07-22T07:14:33;5.47;;;3.38;;
16824;SDS011;8529;48.108;-1.706;2023-07-22T07:17:01;8.50;;;4.10;;
16824;SDS011;8529;48.108;-1.706;2023-07-22T07:19:28;6.50;;;3.40;;
16824;SDS011;8529;48.108;-1.706;2023-07-22T07:21:55;6.15;;;3.05;;
16824;SDS011;8529;48.108;-1.706;2023-07-22T07:24:23;6.93;;;3.40;;
16824;SDS011;8529;48.108;-1.706;2023-07-22T07:26:52;5.85;;;3.65;;
16824;SDS011;8529;48.108;-1.706;2023-07-22T07:29:19;5.13;;;3.00;;
16824;SDS011;8529;48.108;-1.706;2023-07-22T07:31:46;5.20;;;3.10;;
16824;SDS011;8529;48.108;-1.706;2023-07-22T07:34:12;5.55;;;3.08;;
16824;SDS011;8529;48.108;-1.706;2023-07-22T07:36:39;4.47;;;3.13;;
16824;SDS011;8529;48.108;-1.706;2023-07-22T07:39:06;6.47;;;3.20;;
16824;SDS011;8529;48.108;-1.706;2023-07-22T07:41:35;5.95;;;3.00;;
16824;SDS011;8529;48.108;-1.706;2023-07-22T07:44:03;4.93;;;3.00;;
16824;SDS011;8529;48.108;-1.706;2023-07-22T07:46:30;7.38;;;3.25;;
16824;SDS011;8529;48.108;-1.706;2023-07-22T07:48:57;3.97;;;2.47;;
16824;SDS011;8529;48.108;-1.706;2023-07-22T07:51:26;5.15;;;2.90;;
16824;SDS011;8529;48.108;-1.706;2023-07-22T07:53:55;4.50;;;2.38;;
16824;SDS011;8529;48.108;-1.706;2023-07-22T07:56:23;4.65;;;2.38;;
16824;SDS011;8529;48.108;-1.706;2023-07-22T07:58:52;6.80;;;2.60;;
16824;SDS011;8529;48.108;-1.706;2023-07-22T08:01:20;4.38;;;2.35;;
16824;SDS011;8529;48.108;-1.706;2023-07-22T08:03:47;5.00;;;2.33;;
16824;SDS011;8529;48.108;-1.706;2023-07-22T08:06:14;3.75;;;2.40;;
16824;SDS011;8529;48.108;-1.706;2023-07-22T08:08:41;5.40;;;2.90;;
16824;SDS011;8529;48.108;-1.706;2023-07-22T08:11:08;4.88;;;2.42;;
16824;SDS011;8529;48.108;-1.706;2023-07-22T08:13:37;5.68;;;2.85;;
16824;SDS011;8529;48.108;-1.706;2023-07-22T08:16:06;4.38;;;2.78;;
16824;SDS011;8529;48.108;-1.706;2023-07-22T08:18:35;4.22;;;2.90;;
16824;SDS011;8529;48.108;-1.706;2023-07-22T08:21:02;3.90;;;3.20;;
16824;SDS011;8529;48.108;-1.706;2023-07-22T08:23:31;5.15;;;3.10;;
16824;SDS011;8529;48.108;-1.706;2023-07-22T08:25:58;5.20;;;2.83;;
16824;SDS011;8529;48.108;-1.706;2023-07-22T08:28:25;5.75;;;3.15;;
16824;SDS011;8529;48.108;-1.706;2023-07-22T08:30:54;3.15;;;2.40;;
16824;SDS011;8529;48.108;-1.706;2023-07-22T08:33:23;3.40;;;2.47;;
16824;SDS011;8529;48.108;-1.706;2023-07-22T08:35:50;4.90;;;2.80;;
16824;SDS011;8529;48.108;-1.706;2023-07-22T08:38:18;5.82;;;5.03;;
16824;SDS011;8529;48.108;-1.706;2023-07-22T08:40:47;4.45;;;2.92;;
16824;SDS011;8529;48.108;-1.706;2023-07-22T08:43:16;4.80;;;2.58;;
16824;SDS011;8529;48.108;-1.706;2023-07-22T08:45:46;6.80;;;2.80;;
16824;SDS011;8529;48.108;-1.706;2023-07-22T08:48:15;4.50;;;2.60;;
16824;SDS011;8529;48.108;-1.706;2023-07-22T08:50:45;4.70;;;2.47;;
16824;SDS011;8529;48.108;-1.706;2023-07-22T08:53:15;3.17;;;2.60;;
16824;SDS011;8529;48.108;-1.706;2023-07-22T08:55:42;3.92;;;2.80;;
16824;SDS011;8529;48.108;-1.706;2023-07-22T08:58:10;7.55;;;3.67;;
16824;SDS011;8529;48.108;-1.706;2023-07-22T09:00:38;3.50;;;2.83;;
16824;SDS011;8529;48.108;-1.706;2023-07-22T09:03:06;4.35;;;2.60;;
16824;SDS011;8529;48.108;-1.706;2023-07-22T09:05:33;7.18;;;3.00;;
16824;SDS011;8529;48.108;-1.706;2023-07-22T09:08:03;4.60;;;2.80;;
16824;SDS011;8529;48.108;-1.706;2023-07-22T09:10:32;6.22;;;3.38;;
16824;SDS011;8529;48.108;-1.706;2023-07-22T09:13:00;4.78;;;2.80;;
16824;SDS011;8529;48.108;-1.706;2023-07-22T09:15:28;4.28;;;2.78;;
16824;SDS011;8529;48.108;-1.706;2023-07-22T09:17:55;9.73;;;2.95;;
16824;SDS011;8529;48.108;-1.706;2023-07-22T09:20:22;4.10;;;2.90;;
16824;SDS011;8529;48.108;-1.706;2023-07-22T09:22:49;4.63;;;3.30;;
16824;SDS011;8529;48.108;-1.706;2023-07-22T09:25:18;3.10;;;2.67;;
16824;SDS011;8529;48.108;-1.706;2023-07-22T09:27:47;4.10;;;2.90;;
16824;SDS011;8529;48.108;-1.706;2023-07-22T09:30:21;7.25;;;3.10;;
16824;SDS011;8529;48.108;-1.706;2023-07-22T09:32:49;4.40;;;2.30;;
16824;SDS011;8529;48.108;-1.706;2023-07-22T09:35:16;4.53;;;2.58;;
16824;SDS011;8529;48.108;-1.706;2023-07-22T09:37:44;4.32;;;2.88;;
16824;SDS011;8529;48.108;-1.706;2023-07-22T09:40:14;3.80;;;2.90;;
16824;SDS011;8529;48.108;-1.706;2023-07-22T09:42:45;4.55;;;2.88;;
16824;SDS011;8529;48.108;-1.706;2023-07-22T09:45:13;4.65;;;4.20;;
16824;SDS011;8529;48.108;-1.706;2023-07-22T09:47:40;7.22;;;3.80;;
16824;SDS011;8529;48.108;-1.706;2023-07-22T09:50:10;3.30;;;2.75;;
16824;SDS011;8529;48.108;-1.706;2023-07-22T09:52:44;4.47;;;2.92;;
16824;SDS011;8529;48.108;-1.706;2023-07-22T09:55:15;3.90;;;2.67;;
16824;SDS011;8529;48.108;-1.706;2023-07-22T09:57:45;4.38;;;3.40;;
16824;SDS011;8529;48.108;-1.706;2023-07-22T10:00:16;5.28;;;4.38;;
16824;SDS011;8529;48.108;-1.706;2023-07-22T10:02:44;7.20;;;3.35;;
16824;SDS011;8529;48.108;-1.706;2023-07-22T10:05:14;5.30;;;3.28;;
16824;SDS011;8529;48.108;-1.706;2023-07-22T10:07:43;7.45;;;3.92;;
16824;SDS011;8529;48.108;-1.706;2023-07-22T10:10:12;5.97;;;4.07;;
16824;SDS011;8529;48.108;-1.706;2023-07-22T10:12:42;7.03;;;4.40;;
16824;SDS011;8529;48.108;-1.706;2023-07-22T10:15:12;10.10;;;7.13;;
16824;SDS011;8529;48.108;-1.706;2023-07-22T10:17:40;4.60;;;3.30;;
16824;SDS011;8529;48.108;-1.706;2023-07-22T10:20:08;4.88;;;3.28;;
16824;SDS011;8529;48.108;-1.706;2023-07-22T10:22:40;3.72;;;3.35;;
16824;SDS011;8529;48.108;-1.706;2023-07-22T10:25:08;5.35;;;3.78;;
16824;SDS011;8529;48.108;-1.706;2023-07-22T10:27:37;3.80;;;3.15;;
16824;SDS011;8529;48.108;-1.706;2023-07-22T10:30:06;3.85;;;2.90;;
16824;SDS011;8529;48.108;-1.706;2023-07-22T10:32:36;5.28;;;3.35;;
16824;SDS011;8529;48.108;-1.706;2023-07-22T10:35:07;4.80;;;4.35;;
16824;SDS011;8529;48.108;-1.706;2023-07-22T10:37:35;4.85;;;4.43;;
16824;SDS011;8529;48.108;-1.706;2023-07-22T10:40:16;4.95;;;2.80;;
16824;SDS011;8529;48.108;-1.706;2023-07-22T10:42:51;3.90;;;2.95;;
16824;SDS011;8529;48.108;-1.706;2023-07-22T10:45:26;6.05;;;3.30;;
16824;SDS011;8529;48.108;-1.706;2023-07-22T10:48:02;4.85;;;2.10;;
16824;SDS011;8529;48.108;-1.706;2023-07-22T10:50:38;3.97;;;2.50;;
16824;SDS011;8529;48.108;-1.706;2023-07-22T10:53:08;3.83;;;3.40;;
16824;SDS011;8529;48.108;-1.706;2023-07-22T10:58:30;3.08;;;2.50;;
16824;SDS011;8529;48.108;-1.706;2023-07-22T11:06:56;2.55;;;2.15;;
16824;SDS011;8529;48.108;-1.706;2023-07-22T11:09:33;2.65;;;2.05;;
16824;SDS011;8529;48.108;-1.706;2023-07-22T11:12:10;3.72;;;2.50;;
16824;SDS011;8529;48.108;-1.706;2023-07-22T11:14:45;2.70;;;2.35;;
16824;SDS011;8529;48.108;-1.706;2023-07-22T11:17:13;6.03;;;2.30;;
16824;SDS011;8529;48.108;-1.706;2023-07-22T11:19:41;3.67;;;2.70;;
16824;SDS011;8529;48.108;-1.706;2023-07-22T11:22:08;2.22;;;1.95;;
16824;SDS011;8529;48.108;-1.706;2023-07-22T11:24:35;4.60;;;1.95;;
16824;SDS011;8529;48.108;-1.706;2023-07-22T11:27:03;3.60;;;2.20;;
16824;SDS011;8529;48.108;-1.706;2023-07-22T11:29:31;4.45;;;2.45;;
16824;SDS011;8529;48.108;-1.706;2023-07-22T11:31:58;3.28;;;2.40;;
16824;SDS011;8529;48.108;-1.706;2023-07-22T11:34:25;2.13;;;1.80;;
16824;SDS011;8529;48.108;-1.706;2023-07-22T11:36:54;2.92;;;2.33;;
16824;SDS011;8529;48.108;-1.706;2023-07-22T11:39:24;3.45;;;3.08;;
16824;SDS011;8529;48.108;-1.706;2023-07-22T11:41:51;2.90;;;2.60;;
16824;SDS011;8529;48.108;-1.706;2023-07-22T11:44:19;3.13;;;2.47;;
16824;SDS011;8529;48.108;-1.706;2023-07-22T11:46:50;3.08;;;2.80;;
16824;SDS011;8529;48.108;-1.706;2023-07-22T11:49:25;3.80;;;2.20;;
16824;SDS011;8529;48.108;-1.706;2023-07-22T11:51:55;2.85;;;2.20;;
16824;SDS011;8529;48.108;-1.706;2023-07-22T11:54:23;3.08;;;2.33;;
16824;SDS011;8529;48.108;-1.706;2023-07-22T11:56:50;2.67;;;2.47;;
16824;SDS011;8529;48.108;-1.706;2023-07-22T11:59:17;2.83;;;1.77;;
16824;SDS011;8529;48.108;-1.706;2023-07-22T12:01:57;2.55;;;2.22;;
16824;SDS011;8529;48.108;-1.706;2023-07-22T12:04:26;2.67;;;1.90;;
16824;SDS011;8529;48.108;-1.706;2023-07-22T12:06:53;3.22;;;1.80;;
16824;SDS011;8529;48.108;-1.706;2023-07-22T12:09:22;2.85;;;2.15;;
16824;SDS011;8529;48.108;-1.706;2023-07-22T12:11:54;3.97;;;2.13;;
16824;SDS011;8529;48.108;-1.706;2023-07-22T12:14:23;2.80;;;2.45;;
16824;SDS011;8529;48.108;-1.706;2023-07-22T12:16:52;3.50;;;2.45;;
16824;SDS011;8529;48.108;-1.706;2023-07-22T12:19:22;3.10;;;1.70;;
16824;SDS011;8529;48.108;-1.706;2023-07-22T12:21:48;2.67;;;2.00;;
16824;SDS011;8529;48.108;-1.706;2023-07-22T12:24:15;4.15;;;2.08;;
16824;SDS011;8529;48.108;-1.706;2023-07-22T12:26:44;1.98;;;1.80;;
16824;SDS011;8529;48.108;-1.706;2023-07-22T12:29:10;2.25;;;2.05;;
16824;SDS011;8529;48.108;-1.706;2023-07-22T12:31:37;2.97;;;2.38;;
16824;SDS011;8529;48.108;-1.706;2023-07-22T12:34:04;2.78;;;2.50;;
16824;SDS011;8529;48.108;-1.706;2023-07-22T12:36:31;3.03;;;2.05;;
16824;SDS011;8529;48.108;-1.706;2023-07-22T12:38:58;3.58;;;2.25;;
16824;SDS011;8529;48.108;-1.706;2023-07-22T12:41:25;2.45;;;2.05;;
16824;SDS011;8529;48.108;-1.706;2023-07-22T12:43:53;2.83;;;2.40;;
16824;SDS011;8529;48.108;-1.706;2023-07-22T12:46:20;3.00;;;2.35;;
16824;SDS011;8529;48.108;-1.706;2023-07-22T12:48:47;4.53;;;2.30;;
16824;SDS011;8529;48.108;-1.706;2023-07-22T12:51:14;4.20;;;2.72;;
16824;SDS011;8529;48.108;-1.706;2023-07-22T12:53:41;3.42;;;2.55;;
16824;SDS011;8529;48.108;-1.706;2023-07-22T12:56:08;4.90;;;2.83;;
16824;SDS011;8529;48.108;-1.706;2023-07-22T12:58:35;3.85;;;2.35;;
16824;SDS011;8529;48.108;-1.706;2023-07-22T13:01:03;3.90;;;2.40;;
16824;SDS011;8529;48.108;-1.706;2023-07-22T13:03:30;3.13;;;2.72;;
16824;SDS011;8529;48.108;-1.706;2023-07-22T13:05:57;4.95;;;2.88;;
16824;SDS011;8529;48.108;-1.706;2023-07-22T13:08:24;4.68;;;3.03;;
16824;SDS011;8529;48.108;-1.706;2023-07-22T13:10:50;6.97;;;3.15;;
16824;SDS011;8529;48.108;-1.706;2023-07-22T13:13:17;3.20;;;2.38;;
16824;SDS011;8529;48.108;-1.706;2023-07-22T13:15:44;4.30;;;2.45;;
16824;SDS011;8529;48.108;-1.706;2023-07-22T13:18:13;3.95;;;2.40;;
16824;SDS011;8529;48.108;-1.706;2023-07-22T13:20:41;4.35;;;2.80;;
16824;SDS011;8529;48.108;-1.706;2023-07-22T13:23:08;3.70;;;2.50;;
16824;SDS011;8529;48.108;-1.706;2023-07-22T13:25:35;3.83;;;2.38;;
16824;SDS011;8529;48.108;-1.706;2023-07-22T13:28:02;3.20;;;2.20;;
16824;SDS011;8529;48.108;-1.706;2023-07-22T13:30:29;4.90;;;2.67;;
16824;SDS011;8529;48.108;-1.706;2023-07-22T13:32:56;3.35;;;2.60;;
16824;SDS011;8529;48.108;-1.706;2023-07-22T13:35:25;4.75;;;2.78;;
16824;SDS011;8529;48.108;-1.706;2023-07-22T13:37:51;5.65;;;2.67;;
16824;SDS011;8529;48.108;-1.706;2023-07-22T13:40:18;3.85;;;2.55;;
16824;SDS011;8529;48.108;-1.706;2023-07-22T13:42:46;2.92;;;2.40;;
16824;SDS011;8529;48.108;-1.706;2023-07-22T13:45:13;3.80;;;2.42;;
16824;SDS011;8529;48.108;-1.706;2023-07-22T13:47:40;4.15;;;2.25;;
16824;SDS011;8529;48.108;-1.706;2023-07-22T13:50:07;3.45;;;2.53;;
16824;SDS011;8529;48.108;-1.706;2023-07-22T13:52:36;2.33;;;2.05;;
16824;SDS011;8529;48.108;-1.706;2023-07-22T13:55:03;3.28;;;2.72;;
16824;SDS011;8529;48.108;-1.706;2023-07-22T13:57:31;3.90;;;2.40;;
16824;SDS011;8529;48.108;-1.706;2023-07-22T13:59:57;3.65;;;2.80;;
16824;SDS011;8529;48.108;-1.706;2023-07-22T14:02:24;2.47;;;2.28;;
16824;SDS011;8529;48.108;-1.706;2023-07-22T14:04:51;3.47;;;2.30;;
16824;SDS011;8529;48.108;-1.706;2023-07-22T14:07:18;3.90;;;2.25;;
16824;SDS011;8529;48.108;-1.706;2023-07-22T14:09:46;3.70;;;2.25;;
16824;SDS011;8529;48.108;-1.706;2023-07-22T14:12:13;3.08;;;2.20;;
16824;SDS011;8529;48.108;-1.706;2023-07-22T14:14:40;2.85;;;2.28;;
16824;SDS011;8529;48.108;-1.706;2023-07-22T14:17:07;3.35;;;2.40;;
16824;SDS011;8529;48.108;-1.706;2023-07-22T14:19:34;3.95;;;2.50;;
16824;SDS011;8529;48.108;-1.706;2023-07-22T14:22:01;4.72;;;3.00;;
16824;SDS011;8529;48.108;-1.706;2023-07-22T14:24:29;4.82;;;2.40;;
16824;SDS011;8529;48.108;-1.706;2023-07-22T14:26:57;3.40;;;2.10;;
16824;SDS011;8529;48.108;-1.706;2023-07-22T14:29:24;3.90;;;2.50;;
16824;SDS011;8529;48.108;-1.706;2023-07-22T14:31:51;2.42;;;2.03;;
16824;SDS011;8529;48.108;-1.706;2023-07-22T14:34:18;3.72;;;2.10;;
16824;SDS011;8529;48.108;-1.706;2023-07-22T14:36:45;3.85;;;2.50;;
16824;SDS011;8529;48.108;-1.706;2023-07-22T14:39:11;2.42;;;1.85;;
16824;SDS011;8529;48.108;-1.706;2023-07-22T14:41:40;3.03;;;2.15;;
16824;SDS011;8529;48.108;-1.706;2023-07-22T14:44:09;3.55;;;2.65;;
16824;SDS011;8529;48.108;-1.706;2023-07-22T14:46:36;4.07;;;2.67;;
16824;SDS011;8529;48.108;-1.706;2023-07-22T14:49:05;3.63;;;2.85;;
16824;SDS011;8529;48.108;-1.706;2023-07-22T14:51:34;7.47;;;2.95;;
16824;SDS011;8529;48.108;-1.706;2023-07-22T14:54:01;3.80;;;2.47;;
16824;SDS011;8529;48.108;-1.706;2023-07-22T14:56:28;4.40;;;2.78;;
16824;SDS011;8529;48.108;-1.706;2023-07-22T14:58:55;2.92;;;2.38;;
16824;SDS011;8529;48.108;-1.706;2023-07-22T15:01:24;4.78;;;2.50;;